Welcome to Des Moines Iowa Weather. I am an independent private personal weather station on the Northwest Side of Des Moines, Iowa. Just East of Windsor Heights and just West of Glendale . This site is also mobile friendly.

There are no active watches, warnings or advisories


Visit our other weather sites:

Historical Data

Weather Station Setup



Weather Underground History page Text

Daily Summary for August 25, 2017 Units:  English    Metric   Both
« Previous Day
Next Day »
Daily Weekly Monthly Yearly Custom
  High: Low: Average:
Temperature: 78.8 °F 63.1 °F 69.5 °F
Dew Point: 66.0 °F 59.0 °F 61.9 °F
Humidity: 90 % 62 % 77 %
Wind Speed: 6.0 mph 0.0 mph 0.8 mph
Wind Gust: 10.0 mph - -
Wind:- - SSE
Pressure: 30.13 in 30.03 in -
Precipitation: 0.01 in    
Historical Graphs
 
 
Tabular Data for August 25, 2017
Time Temperature Dew Point Pressure Wind Wind Speed Wind Gust Humidity Rainfall Rate (Hourly)
00:14 67.4 °F 60.0 °F 30.04 in Calm   2.0 mph 78 % 0.00 in
00:29 67.2 °F 60.0 °F 30.03 in East 2.0 mph 4.0 mph 78 % 0.00 in
00:44 67.2 °F 61.0 °F 30.03 in East 2.0 mph 2.0 mph 79 % 0.00 in
00:59 67.1 °F 60.0 °F 30.03 in SE 1.0 mph 3.0 mph 79 % 0.00 in
01:14 67.0 °F 60.0 °F 30.03 in Calm   4.0 mph 79 % 0.00 in
01:29 66.8 °F 60.0 °F 30.03 in Calm   3.0 mph 79 % 0.00 in
01:44 66.7 °F 60.0 °F 30.04 in South 1.0 mph 4.0 mph 79 % 0.00 in
01:59 66.7 °F 60.0 °F 30.03 in South 4.0 mph 4.0 mph 78 % 0.00 in
02:14 66.7 °F 60.0 °F 30.03 in Calm   3.0 mph 79 % 0.00 in
02:29 66.5 °F 60.0 °F 30.03 in Calm   3.0 mph 79 % 0.00 in
02:44 66.3 °F 60.0 °F 30.03 in South 2.0 mph 4.0 mph 79 % 0.00 in
02:59 66.2 °F 60.0 °F 30.04 in South 1.0 mph 4.0 mph 80 % 0.00 in
03:14 66.0 °F 60.0 °F 30.04 in Calm   2.0 mph 80 % 0.00 in
03:29 65.8 °F 60.0 °F 30.04 in Calm   3.0 mph 81 % 0.00 in
03:44 65.6 °F 60.0 °F 30.04 in Calm   2.0 mph 81 % 0.00 in
04:00 65.5 °F 60.0 °F 30.04 in Calm   2.0 mph 82 % 0.00 in
04:15 65.2 °F 60.0 °F 30.04 in Calm   1.0 mph 83 % 0.00 in
04:30 64.8 °F 60.0 °F 30.04 in Calm   2.0 mph 84 % 0.00 in
04:45 64.4 °F 60.0 °F 30.04 in Calm     85 % 0.00 in
05:00 64.0 °F 60.0 °F 30.04 in Calm   2.0 mph 85 % 0.00 in
05:15 63.9 °F 60.0 °F 30.05 in Calm   2.0 mph 86 % 0.00 in
05:30 63.7 °F 60.0 °F 30.05 in Calm   3.0 mph 86 % 0.00 in
05:45 63.5 °F 59.0 °F 30.05 in Calm   3.0 mph 86 % 0.00 in
06:00 63.3 °F 59.0 °F 30.06 in East 1.0 mph 2.0 mph 86 % 0.00 in
06:15 63.2 °F 59.0 °F 30.07 in Calm   3.0 mph 86 % 0.00 in
06:30 63.2 °F 59.0 °F 30.08 in Calm   1.0 mph 86 % 0.00 in
06:45 63.3 °F 59.0 °F 30.10 in ESE 1.0 mph 2.0 mph 86 % 0.00 in
07:00 63.3 °F 59.0 °F 30.11 in Calm   3.0 mph 86 % 0.00 in
07:15 63.4 °F 60.0 °F 30.11 in Calm   1.0 mph 87 % 0.01 in
07:30 63.3 °F 60.0 °F 30.12 in Calm   3.0 mph 88 % 0.01 in
07:45 63.2 °F 60.0 °F 30.12 in Calm     89 % 0.01 in
08:00 63.1 °F 60.0 °F 30.13 in Calm     89 % 0.01 in
08:15 63.2 °F 60.0 °F 30.13 in ESE 2.0 mph 6.0 mph 90 % 0.00 in
08:30 63.3 °F 60.0 °F 30.12 in Calm   3.0 mph 90 % 0.00 in
08:45 63.5 °F 61.0 °F 30.12 in Calm   4.0 mph 90 % 0.00 in
09:01 63.8 °F 61.0 °F 30.12 in Calm   4.0 mph 89 % 0.00 in
09:15 64.2 °F 61.0 °F 30.12 in East 1.0 mph 6.0 mph 89 % 0.00 in
09:31 64.7 °F 61.0 °F 30.11 in West 1.0 mph 8.0 mph 87 % 0.00 in
09:46 65.0 °F 61.0 °F 30.11 in Calm   7.0 mph 86 % 0.00 in
10:01 65.8 °F 61.0 °F 30.11 in South 2.0 mph 4.0 mph 85 % 0.00 in
10:16 66.6 °F 62.0 °F 30.10 in Calm   5.0 mph 84 % 0.00 in
10:31 67.5 °F 62.0 °F 30.10 in Calm   3.0 mph 82 % 0.00 in
10:46 68.5 °F 62.0 °F 30.09 in SSE 3.0 mph 5.0 mph 79 % 0.00 in
11:01 69.1 °F 62.0 °F 30.08 in Calm   9.0 mph 77 % 0.00 in
11:16 69.4 °F 62.0 °F 30.07 in Calm   10.0 mph 76 % 0.00 in
11:31 69.2 °F 61.0 °F 30.06 in South 3.0 mph 10.0 mph 76 % 0.00 in
11:46 69.0 °F 62.0 °F 30.06 in SSE 1.0 mph 6.0 mph 77 % 0.00 in
12:01 68.9 °F 61.0 °F 30.07 in SSE 3.0 mph 6.0 mph 77 % 0.00 in
12:16 69.1 °F 62.0 °F 30.07 in South 1.0 mph 6.0 mph 77 % 0.00 in
12:31 69.5 °F 62.0 °F 30.07 in Calm   4.0 mph 78 % 0.00 in
12:46 70.0 °F 63.0 °F 30.07 in SE 2.0 mph 5.0 mph 78 % 0.00 in
13:01 70.4 °F 63.0 °F 30.08 in Calm   5.0 mph 77 % 0.00 in
13:16 71.3 °F 64.0 °F 30.08 in ESE 1.0 mph 4.0 mph 77 % 0.00 in
13:31 72.7 °F 64.0 °F 30.07 in SSE 2.0 mph 9.0 mph 75 % 0.00 in
13:46 73.4 °F 64.0 °F 30.08 in SSE 3.0 mph 7.0 mph 73 % 0.00 in
14:01 73.8 °F 65.0 °F 30.09 in Calm   5.0 mph 73 % 0.00 in
14:16 75.4 °F 66.0 °F 30.09 in ESE 2.0 mph 3.0 mph 72 % 0.00 in
14:31 77.2 °F 65.0 °F 30.08 in South 3.0 mph 6.0 mph 65 % 0.00 in
14:46 76.6 °F 66.0 °F 30.07 in SE 2.0 mph 4.0 mph 69 % 0.00 in
15:01 77.7 °F 65.0 °F 30.07 in Calm   8.0 mph 66 % 0.00 in
15:17 78.1 °F 66.0 °F 30.07 in Calm   5.0 mph 66 % 0.00 in
15:32 77.9 °F 65.0 °F 30.06 in Calm   7.0 mph 64 % 0.00 in
15:47 78.3 °F 65.0 °F 30.06 in SSW 2.0 mph 6.0 mph 64 % 0.00 in
16:01 78.8 °F 65.0 °F 30.06 in Calm   6.0 mph 63 % 0.00 in
16:17 77.5 °F 64.0 °F 30.06 in Calm   6.0 mph 63 % 0.00 in
16:31 77.9 °F 64.0 °F 30.06 in WSW 4.0 mph 4.0 mph 63 % 0.00 in
16:46 77.0 °F 63.0 °F 30.05 in SSE 6.0 mph 6.0 mph 63 % 0.00 in
17:01 77.5 °F 63.0 °F 30.05 in Calm   6.0 mph 62 % 0.00 in
17:16 77.3 °F 64.0 °F 30.05 in SSW 1.0 mph 4.0 mph 63 % 0.00 in
17:32 76.7 °F 64.0 °F 30.06 in East 1.0 mph 8.0 mph 65 % 0.00 in
17:47 76.8 °F 64.0 °F 30.06 in Calm   5.0 mph 65 % 0.00 in
18:02 77.1 °F 64.0 °F 30.07 in SE 2.0 mph 4.0 mph 64 % 0.00 in
18:17 77.2 °F 64.0 °F 30.07 in South 4.0 mph 6.0 mph 63 % 0.00 in
18:32 76.9 °F 64.0 °F 30.06 in Calm   6.0 mph 64 % 0.00 in
18:47 76.5 °F 63.0 °F 30.06 in ESE 1.0 mph 4.0 mph 64 % 0.00 in
19:02 76.0 °F 63.0 °F 30.06 in South 1.0 mph 4.0 mph 64 % 0.00 in
19:17 75.6 °F 63.0 °F 30.06 in South 3.0 mph 4.0 mph 65 % 0.00 in
19:32 75.0 °F 64.0 °F 30.05 in Calm   7.0 mph 68 % 0.00 in
19:47 74.4 °F 64.0 °F 30.05 in Calm   7.0 mph 69 % 0.00 in
20:02 73.7 °F 63.0 °F 30.05 in Calm   4.0 mph 70 % 0.00 in
20:17 73.1 °F 63.0 °F 30.05 in South 1.0 mph 6.0 mph 71 % 0.00 in
20:32 72.3 °F 63.0 °F 30.04 in Calm   5.0 mph 72 % 0.00 in
20:47 71.7 °F 63.0 °F 30.05 in Calm   3.0 mph 73 % 0.00 in
21:02 71.2 °F 63.0 °F 30.06 in ESE 1.0 mph 2.0 mph 74 % 0.00 in
21:17 70.7 °F 62.0 °F 30.07 in Calm   5.0 mph 75 % 0.00 in
21:32 70.3 °F 62.0 °F 30.08 in SSE 1.0 mph 3.0 mph 76 % 0.00 in
22:02 69.6 °F 62.0 °F 30.09 in SSE 4.0 mph 4.0 mph 77 % 0.00 in
22:24 69.3 °F 62.0 °F 30.09 in Calm   7.0 mph 78 % 0.00 in
22:37 68.9 °F 62.0 °F 30.09 in Calm   6.0 mph 78 % 0.00 in
22:47 68.5 °F 62.0 °F 30.09 in Calm   6.0 mph 79 % 0.00 in
23:02 68.2 °F 62.0 °F 30.09 in Calm   6.0 mph 80 % 0.00 in
23:17 67.9 °F 62.0 °F 30.08 in Calm   6.0 mph 80 % 0.00 in
23:32 67.5 °F 62.0 °F 30.08 in Calm   4.0 mph 81 % 0.00 in
23:47 67.2 °F 62.0 °F 30.08 in Calm   4.0 mph 82 % 0.00 in
Des Moines Weather and Climate
Compliments of Weather Underground - 3 mb

Script developed by  Jim McMurry - jmcmurry@mwt.net Adapted for the template by  Wim van der Kuil - Leuven-Template.eu

You find our weather info also at:

Weather Underground

Equipment we use:

Weather-station
Davis VP2 Plus

Weather-program
Davis Weatherlink.Com

Weather-server
iMac (Retina 4K, 21.5-inch, Late 2015)

Provider
Hostmonster.com

Davis VP2 Plus

Davis Weatherlink.Com

iMac (Retina 4K, 21.5-inch, Late 2015)

Hostmonster.com